Time;durP1;ratioP1;P1;durP2;ratioP2;P2;SDS_P1;SDS_P2;PMS_P1;PMS_P2;Temp;Humidity;BMP_temperature;BMP_pressure;BME280_temperature;BME280_humidity;BME280_pressure;Samples;Min_cycle;Max_cycle;Signal;HPM_P1;HPM_P2
2023/12/19 00:01:58;;;;;;;37.60;23.87;;;;;;;3.67;100.00;102376.94;5048075;28;20461;-62
2023/12/19 00:04:23;;;;;;;33.20;22.65;;;;;;;3.68;100.00;102376.16;5048346;28;20047;-63
2023/12/19 00:06:48;;;;;;;36.13;21.60;;;;;;;3.69;100.00;102383.06;5048385;28;20112;-63
2023/12/19 00:09:14;;;;;;;33.07;23.13;;;;;;;3.69;100.00;102385.63;5047379;28;20431;-63
2023/12/19 00:11:39;;;;;;;34.13;22.17;;;;;;;3.72;100.00;102386.78;5047873;28;20469;-63
2023/12/19 00:14:07;;;;;;;33.23;22.77;;;;;;;3.72;100.00;102373.97;5047342;28;20146;-63
2023/12/19 00:16:32;;;;;;;36.77;24.33;;;;;;;3.70;100.00;102365.28;5047876;28;20078;-63
2023/12/19 00:18:58;;;;;;;37.70;22.27;;;;;;;3.74;100.00;102371.56;5034475;28;20103;-63
2023/12/19 00:21:23;;;;;;;35.30;24.63;;;;;;;3.75;100.00;102363.09;5047068;28;20021;-63
2023/12/19 00:23:48;;;;;;;33.37;22.80;;;;;;;3.81;100.00;102348.22;5047028;28;20514;-63
2023/12/19 00:26:15;;;;;;;37.77;23.00;;;;;;;3.79;100.00;102344.66;5037122;28;20034;-62
2023/12/19 00:28:41;;;;;;;33.50;23.40;;;;;;;3.83;100.00;102351.81;5044706;28;20028;-63
2023/12/19 00:31:07;;;;;;;31.67;22.20;;;;;;;3.81;100.00;102352.47;5057850;28;20457;-63
2023/12/19 00:33:32;;;;;;;36.30;22.93;;;;;;;3.82;100.00;102350.03;5048971;28;20067;-62
2023/12/19 00:35:58;;;;;;;35.07;23.37;;;;;;;3.82;100.00;102355.16;5057893;28;20533;-63
2023/12/19 00:38:23;;;;;;;37.40;24.00;;;;;;;3.82;100.00;102334.63;5067301;28;20421;-63
2023/12/19 00:40:48;;;;;;;36.40;24.63;;;;;;;3.82;100.00;102320.91;5051199;28;20534;-63
2023/12/19 00:43:14;;;;;;;37.83;23.73;;;;;;;3.82;100.00;102319.25;5047486;28;20647;-63
2023/12/19 00:45:39;;;;;;;36.83;23.60;;;;;;;3.81;100.00;102317.44;5059896;28;20067;-63
2023/12/19 00:48:05;;;;;;;34.43;21.97;;;;;;;3.81;100.00;102312.31;5047109;28;20032;-63
2023/12/19 00:50:30;;;;;;;34.73;24.07;;;;;;;3.83;100.00;102304.75;5048602;28;20589;-63
2023/12/19 00:52:55;;;;;;;36.27;23.13;;;;;;;3.83;100.00;102303.06;5046294;28;20029;-63
2023/12/19 00:55:20;;;;;;;38.37;23.73;;;;;;;3.82;100.00;102298.72;5046931;28;20469;-63
2023/12/19 00:57:46;;;;;;;38.60;24.67;;;;;;;3.83;100.00;102295.38;5047312;28;20067;-62
2023/12/19 01:00:11;;;;;;;38.87;24.57;;;;;;;3.88;100.00;102287.19;5046481;28;20059;-62
2023/12/19 01:02:37;;;;;;;38.47;23.30;;;;;;;3.90;100.00;102285.66;5046391;28;20355;-63
2023/12/19 01:05:02;;;;;;;40.00;23.83;;;;;;;3.91;100.00;102290.00;5044881;28;20029;-62
2023/12/19 01:07:27;;;;;;;39.57;24.07;;;;;;;3.95;100.00;102281.78;5046589;28;20053;-63
2023/12/19 01:09:53;;;;;;;35.13;23.37;;;;;;;3.95;100.00;102274.09;5055326;28;20495;-63
2023/12/19 01:12:18;;;;;;;37.20;23.48;;;;;;;3.96;100.00;102270.75;5037392;28;20037;-63
2023/12/19 01:14:45;;;;;;;39.40;22.80;;;;;;;3.99;100.00;102265.88;5038433;28;20041;-63
2023/12/19 01:17:10;;;;;;;40.53;24.47;;;;;;;3.95;100.00;102269.88;5041844;28;20029;-63
2023/12/19 01:19:36;;;;;;;39.37;24.00;;;;;;;3.96;100.00;102269.09;5046781;28;20465;-63
2023/12/19 01:22:02;;;;;;;41.07;24.53;;;;;;;3.95;100.00;102268.97;5046855;28;20025;-63
2023/12/19 01:24:28;;;;;;;39.45;25.08;;;;;;;3.98;100.00;102258.94;5047244;28;20499;-63
2023/12/19 01:26:53;;;;;;;38.67;24.93;;;;;;;4.03;100.00;102259.34;5032488;28;20033;-62
2023/12/19 01:29:18;;;;;;;38.10;24.60;;;;;;;4.03;100.00;102261.91;5054249;28;20030;-63
2023/12/19 01:31:44;;;;;;;39.23;24.70;;;;;;;4.01;100.00;102261.75;5038106;28;20535;-62
2023/12/19 01:34:09;;;;;;;39.75;24.65;;;;;;;4.03;100.00;102269.59;5046710;28;20025;-63
2023/12/19 01:36:37;;;;;;;40.85;26.05;;;;;;;4.05;100.00;102268.94;5046968;28;20084;-63
2023/12/19 01:39:03;;;;;;;44.60;24.57;;;;;;;4.07;100.00;102259.69;5045505;28;20021;-62
2023/12/19 01:41:29;;;;;;;40.35;24.67;;;;;;;4.08;100.00;102258.03;5065976;28;20130;-62
2023/12/19 01:43:58;;;;;;;37.50;24.45;;;;;;;4.10;100.00;102263.28;5064484;28;20021;-64
2023/12/19 01:46:23;;;;;;;38.10;24.20;;;;;;;4.11;100.00;102271.09;5066270;28;20026;-63
2023/12/19 01:48:49;;;;;;;41.60;26.07;;;;;;;4.13;100.00;102254.19;5043029;28;20037;-63
2023/12/19 01:51:14;;;;;;;39.28;25.00;;;;;;;4.12;100.00;102246.34;5068569;28;20080;-63
2023/12/19 01:53:44;;;;;;;40.35;24.70;;;;;;;4.13;100.00;102248.13;5066788;28;20750;-63
2023/12/19 01:56:11;;;;;;;38.13;24.42;;;;;;;4.14;100.00;102255.97;5058150;28;20032;-63
2023/12/19 01:58:37;;;;;;;39.63;25.27;;;;;;;4.12;100.00;102246.34;5054064;28;20033;-63
2023/12/19 02:01:03;;;;;;;37.53;24.77;;;;;;;4.10;100.00;102242.75;5049684;28;20063;-63
2023/12/19 02:03:28;;;;;;;41.90;26.47;;;;;;;4.08;100.00;102240.94;5049014;28;20024;-63
2023/12/19 02:05:54;;;;;;;43.85;25.25;;;;;;;4.11;100.00;102249.69;5049758;28;20033;-63
2023/12/19 02:08:20;;;;;;;37.65;23.55;;;;;;;4.13;100.00;102245.56;5047992;28;20628;-62
2023/12/19 02:10:45;;;;;;;39.20;24.42;;;;;;;4.11;100.00;102245.44;5045468;28;20082;-63
2023/12/19 02:13:10;;;;;;;38.13;23.75;;;;;;;4.16;100.00;102248.38;5057111;28;20119;-63
2023/12/19 02:15:36;;;;;;;37.92;23.98;;;;;;;4.14;100.00;102242.22;5063387;28;20061;-63
2023/12/19 02:18:19;;;;;;;36.50;22.45;;;;;;;4.16;100.00;102238.13;5031236;28;20389;-63
2023/12/19 02:20:45;;;;;;;39.58;25.13;;;;;;;4.15;100.00;102233.75;5055730;28;20033;-62
2023/12/19 02:23:12;;;;;;;36.15;23.30;;;;;;;4.15;100.00;102226.06;5042848;28;20052;-63
2023/12/19 02:25:37;;;;;;;35.97;23.75;;;;;;;4.18;100.00;102213.47;5045032;28;20366;-63
2023/12/19 02:28:03;;;;;;;40.85;23.63;;;;;;;4.20;100.00;102211.94;5039746;28;20036;-63
2023/12/19 02:30:29;;;;;;;38.67;24.10;;;;;;;4.22;100.00;102206.91;5047974;28;20885;-63
2023/12/19 02:32:55;;;;;;;40.35;23.70;;;;;;;4.17;100.00;102210.00;5052127;28;20032;-63
2023/12/19 02:35:20;;;;;;;39.17;23.77;;;;;;;4.19;100.00;102218.72;5050202;28;20338;-63
2023/12/19 02:37:45;;;;;;;39.53;25.80;;;;;;;4.15;100.00;102216.72;5059395;28;20108;-63
2023/12/19 02:40:12;;;;;;;38.55;24.70;;;;;;;4.18;100.00;102210.91;5049970;28;20029;-63
2023/12/19 02:42:41;;;;;;;39.67;24.83;;;;;;;4.19;100.00;102205.03;5048529;28;20036;-62
2023/12/19 02:45:08;;;;;;;36.28;24.80;;;;;;;4.20;100.00;102205.16;5050253;28;20062;-62
2023/12/19 02:47:34;;;;;;;37.17;23.15;;;;;;;4.17;100.00;102204.00;5052536;28;20024;-63
2023/12/19 02:49:59;;;;;;;35.05;23.77;;;;;;;4.16;100.00;102191.91;5057354;28;20056;-62
2023/12/19 02:52:25;;;;;;;39.00;23.88;;;;;;;4.15;100.00;102195.28;5048436;28;20044;-62
2023/12/19 02:54:50;;;;;;;36.70;22.43;;;;;;;4.15;100.00;102191.06;5060217;28;20039;-62
2023/12/19 02:57:15;;;;;;;33.80;22.25;;;;;;;4.17;100.00;102183.47;5067095;28;20020;-62
2023/12/19 02:59:40;;;;;;;32.15;21.70;;;;;;;4.21;100.00;102167.53;5068268;28;20024;-63
2023/12/19 03:02:06;;;;;;;36.92;22.35;;;;;;;4.18;100.00;102169.84;5033012;28;20059;-63
2023/12/19 03:04:31;;;;;;;35.80;22.48;;;;;;;4.20;100.00;102158.94;5052489;28;20035;-63
2023/12/19 03:06:56;;;;;;;32.42;21.58;;;;;;;4.24;100.00;102160.09;5046231;28;20442;-63
2023/12/19 03:09:22;;;;;;;33.97;21.30;;;;;;;4.22;100.00;102159.06;5046228;28;20547;-63
2023/12/19 03:12:03;;;;;;;34.05;20.55;;;;;;;4.22;100.00;102150.47;5059474;28;20028;-63
2023/12/19 03:14:28;;;;;;;;;;;;;;;4.17;100.00;102148.41;5048906;28;20039;-63
2023/12/19 03:16:54;;;;;;;31.73;20.63;;;;;;;4.16;100.00;102145.72;5048495;28;20335;-63
2023/12/19 03:19:19;;;;;;;32.03;21.52;;;;;;;4.18;100.00;102136.50;5048144;28;20161;-63
2023/12/19 03:21:44;;;;;;;38.33;23.05;;;;;;;4.13;100.00;102135.25;5048435;28;20470;-63
2023/12/19 03:24:09;;;;;;;35.70;23.33;;;;;;;4.13;100.00;102130.09;5054126;28;20066;-62
2023/12/19 03:26:35;;;;;;;32.17;21.08;;;;;;;4.17;100.00;102124.44;5067566;28;20028;-62
2023/12/19 03:29:00;;;;;;;35.92;21.25;;;;;;;4.14;100.00;102127.66;5045629;28;20029;-62
2023/12/19 03:31:25;;;;;;;39.13;22.73;;;;;;;4.17;100.00;102121.88;5039625;28;20028;-63
2023/12/19 03:33:50;;;;;;;34.65;22.25;;;;;;;4.17;100.00;102116.75;5043827;28;20026;-63
2023/12/19 03:36:16;;;;;;;32.85;21.77;;;;;;;4.20;100.00;102101.59;5033277;28;20025;-62
2023/12/19 03:38:42;;;;;;;37.22;22.65;;;;;;;4.21;100.00;102085.41;5048064;28;20312;-63
2023/12/19 03:41:07;;;;;;;31.83;20.88;;;;;;;4.20;100.00;102081.97;5061278;28;20020;-63
2023/12/19 03:43:34;;;;;;;33.00;21.07;;;;;;;4.24;100.00;102085.66;5047930;28;20021;-63
2023/12/19 03:46:01;;;;;;;28.80;19.85;;;;;;;4.25;100.00;102084.88;5047794;28;20036;-63
2023/12/19 03:48:27;;;;;;;32.67;20.92;;;;;;;4.17;100.00;102088.53;5047981;28;20025;-63
2023/12/19 03:50:53;;;;;;;33.35;21.05;;;;;;;4.16;100.00;102076.44;5040384;28;20068;-62
2023/12/19 03:53:18;;;;;;;37.28;22.52;;;;;;;4.16;100.00;102084.16;5044489;28;20025;-63
2023/12/19 03:55:44;;;;;;;32.47;20.30;;;;;;;4.18;100.00;102082.59;5036002;28;20511;-63
2023/12/19 03:58:09;;;;;;;35.95;21.90;;;;;;;4.17;100.00;102080.84;5041655;28;20493;-62
2023/12/19 04:00:35;;;;;;;34.08;20.63;;;;;;;4.18;100.00;102075.81;5047625;28;20036;-62
2023/12/19 04:03:00;;;;;;;35.88;21.85;;;;;;;4.22;100.00;102070.91;5047488;28;20530;-62
2023/12/19 04:05:25;;;;;;;38.83;21.30;;;;;;;4.23;100.00;102060.75;5045865;28;20043;-62
2023/12/19 04:07:50;;;;;;;34.67;22.97;;;;;;;4.21;100.00;102057.19;5043645;28;20030;-63
2023/12/19 04:10:16;;;;;;;38.25;23.48;;;;;;;4.25;100.00;102059.22;5038930;28;20029;-63
2023/12/19 04:12:41;;;;;;;36.20;22.35;;;;;;;4.27;100.00;102062.81;5057785;28;20056;-63
2023/12/19 04:15:08;;;;;;;39.75;24.23;;;;;;;4.28;100.00;102059.44;5050056;28;20405;-63
2023/12/19 04:17:33;;;;;;;46.38;25.25;;;;;;;4.25;100.00;102059.22;5041696;28;20032;-63
2023/12/19 04:19:59;;;;;;;43.45;25.83;;;;;;;4.27;100.00;102051.63;5039797;28;20359;-63
2023/12/19 04:22:25;;;;;;;57.03;28.25;;;;;;;4.27;100.00;102051.63;5054123;28;20501;-62
2023/12/19 04:24:50;;;;;;;51.35;27.80;;;;;;;4.30;100.00;102047.63;5033281;28;20021;-63
2023/12/19 04:27:15;;;;;;;48.80;28.27;;;;;;;4.37;100.00;102053.25;5027636;28;20429;-63
2023/12/19 04:29:45;;;;;;;55.65;29.85;;;;;;;4.35;100.00;102026.56;5037033;28;20032;-63
2023/12/19 04:32:10;;;;;;;54.05;29.35;;;;;;;4.39;100.00;102015.78;5046324;28;20407;-63
2023/12/19 04:34:36;;;;;;;58.88;31.85;;;;;;;4.37;100.00;102012.19;5047343;28;20074;-62
2023/12/19 04:37:01;;;;;;;58.08;29.80;;;;;;;4.40;100.00;102010.75;5046626;28;20052;-63
2023/12/19 04:39:26;;;;;;;53.40;29.80;;;;;;;4.41;100.00;102001.34;5047141;28;20377;-63
2023/12/19 04:41:52;;;;;;;50.58;29.63;;;;;;;4.41;100.00;101996.22;5047228;28;20021;-62
2023/12/19 04:44:17;;;;;;;56.40;30.05;;;;;;;4.41;100.00;101994.56;5047244;28;20078;-62
2023/12/19 04:46:43;;;;;;;51.97;30.25;;;;;;;4.39;100.00;101992.66;5046844;28;20033;-63
2023/12/19 04:49:08;;;;;;;53.47;30.67;;;;;;;4.45;100.00;101990.53;5046756;28;20036;-63
2023/12/19 04:51:33;;;;;;;53.05;30.45;;;;;;;4.47;100.00;101983.88;5047211;28;20078;-63
2023/12/19 04:53:59;;;;;;;53.22;29.88;;;;;;;4.50;100.00;101984.09;5060312;28;20473;-63
2023/12/19 04:56:25;;;;;;;53.90;30.30;;;;;;;4.51;100.00;101980.75;5035744;28;20480;-63
2023/12/19 04:58:50;;;;;;;56.25;31.10;;;;;;;4.50;100.00;101966.13;5040108;28;20116;-63
2023/12/19 05:01:16;;;;;;;49.22;30.20;;;;;;;4.54;100.00;101970.72;5032763;28;20017;-63
2023/12/19 05:03:41;;;;;;;54.72;30.42;;;;;;;4.54;100.00;101967.25;5045249;28;20108;-62
2023/12/19 05:06:08;;;;;;;52.03;30.27;;;;;;;4.55;100.00;101962.22;5047531;28;20017;-63
2023/12/19 05:08:33;;;;;;;51.13;30.73;;;;;;;4.58;100.00;101969.25;5046989;28;20083;-63
2023/12/19 05:10:59;;;;;;;49.53;30.75;;;;;;;4.57;100.00;101968.38;5045950;28;20443;-63
2023/12/19 05:13:26;;;;;;;54.80;29.58;;;;;;;4.61;100.00;101976.28;5048709;28;20037;-63
2023/12/19 05:15:51;;;;;;;54.63;28.80;;;;;;;4.62;100.00;101972.97;5045735;28;20536;-63
2023/12/19 05:18:18;;;;;;;52.30;30.35;;;;;;;4.64;100.00;101971.41;5046326;28;20144;-63
2023/12/19 05:20:44;;;;;;;49.93;29.10;;;;;;;4.65;100.00;101973.19;5046818;28;20024;-62
2023/12/19 05:23:10;;;;;;;55.45;30.55;;;;;;;4.65;100.00;101986.91;5049392;28;20021;-64
2023/12/19 05:25:35;;;;;;;50.80;28.30;;;;;;;4.68;100.00;101971.72;5047526;28;20548;-63
2023/12/19 05:28:00;;;;;;;47.25;30.42;;;;;;;4.68;100.00;101963.13;5030603;28;20546;-63
2023/12/19 05:30:25;;;;;;;51.50;29.65;;;;;;;4.72;100.00;101964.25;5043692;28;20021;-63
2023/12/19 05:32:51;;;;;;;53.10;31.20;;;;;;;4.74;100.00;101968.72;5051123;28;20022;-63
2023/12/19 05:35:16;;;;;;;49.17;29.33;;;;;;;4.79;100.00;101966.50;5063468;28;20057;-62
2023/12/19 05:37:42;;;;;;;49.15;30.13;;;;;;;4.81;100.00;101964.94;5043424;28;20018;-63
2023/12/19 05:40:08;;;;;;;49.75;28.75;;;;;;;4.82;100.00;101956.47;5040679;28;20021;-63
2023/12/19 05:42:36;;;;;;;46.53;29.08;;;;;;;4.82;100.00;101955.56;5060556;28;20029;-63
2023/12/19 05:45:03;;;;;;;45.20;27.98;;;;;;;4.84;100.00;101961.72;5049831;28;20342;-63
2023/12/19 05:47:28;;;;;;;44.42;28.85;;;;;;;4.85;100.00;101955.78;5050463;28;20259;-62
2023/12/19 05:49:53;;;;;;;49.00;29.77;;;;;;;4.86;100.00;101960.13;5036677;28;20069;-63
2023/12/19 05:52:19;;;;;;;41.20;26.63;;;;;;;4.92;100.00;101950.31;5056800;28;20548;-63
2023/12/19 05:54:44;;;;;;;40.45;27.15;;;;;;;4.92;100.00;101942.59;5054531;28;20025;-63
2023/12/19 05:57:09;;;;;;;45.63;28.65;;;;;;;4.91;100.00;101935.69;5050288;28;20071;-64
2023/12/19 05:59:35;;;;;;;42.90;27.42;;;;;;;4.91;100.00;101928.84;5049313;28;20036;-63
2023/12/19 06:02:00;;;;;;;44.78;28.45;;;;;;;4.93;100.00;101916.13;5049565;28;20023;-63
2023/12/19 06:04:25;;;;;;;41.15;28.27;;;;;;;4.90;100.00;101923.63;5042965;28;20171;-63
2023/12/19 06:06:51;;;;;;;41.33;27.67;;;;;;;4.95;100.00;101909.41;5057176;28;20106;-63
2023/12/19 06:09:16;;;;;;;46.97;27.73;;;;;;;4.96;100.00;101928.31;5049981;28;20013;-63
2023/12/19 06:11:41;;;;;;;43.40;27.73;;;;;;;4.96;100.00;101916.38;5050008;28;20109;-62
2023/12/19 06:14:08;;;;;;;42.58;26.45;;;;;;;4.96;100.00;101908.66;5037524;28;20048;-63
2023/12/19 06:16:33;;;;;;;42.97;26.90;;;;;;;4.97;100.00;101913.00;5046734;28;20504;-63
2023/12/19 06:18:59;;;;;;;42.35;27.10;;;;;;;4.95;100.00;101909.41;5047310;28;20104;-63
2023/12/19 06:21:24;;;;;;;38.75;26.95;;;;;;;4.96;100.00;101921.50;5048521;28;20115;-62
2023/12/19 06:23:50;;;;;;;33.85;25.73;;;;;;;5.03;100.00;101912.56;5054101;28;20028;-63
2023/12/19 06:26:15;;;;;;;36.72;25.05;;;;;;;5.05;100.00;101913.56;5055093;28;20029;-63
2023/12/19 06:28:40;;;;;;;34.13;25.08;;;;;;;5.05;100.00;101904.16;5038606;28;20076;-63
2023/12/19 06:31:06;;;;;;;37.28;25.50;;;;;;;5.04;100.00;101907.53;5030050;28;20541;-63
2023/12/19 06:33:31;;;;;;;39.83;25.30;;;;;;;5.08;100.00;101907.72;5031563;28;20489;-63
2023/12/19 06:35:57;;;;;;;34.15;24.30;;;;;;;5.09;100.00;101901.84;5061180;28;20019;-63
2023/12/19 06:38:22;;;;;;;34.42;24.45;;;;;;;5.10;100.00;101906.16;5058346;28;20052;-63
2023/12/19 06:40:47;;;;;;;35.75;24.48;;;;;;;5.14;100.00;101908.19;5039939;28;20432;-63
2023/12/19 06:43:12;;;;;;;33.45;23.90;;;;;;;5.11;100.00;101902.84;5049596;28;20040;-63
2023/12/19 06:45:38;;;;;;;32.63;23.08;;;;;;;5.14;100.00;101895.34;5053553;28;20024;-63
2023/12/19 06:48:03;;;;;;;31.27;22.52;;;;;;;5.13;100.00;101904.72;5058324;28;20150;-63
2023/12/19 06:50:29;;;;;;;34.05;23.75;;;;;;;5.16;100.00;101906.63;5049511;28;20033;-63
2023/12/19 06:52:54;;;;;;;31.42;22.48;;;;;;;5.17;100.00;101898.13;5047563;28;20032;-63
2023/12/19 06:55:21;;;;;;;28.65;22.48;;;;;;;5.19;100.00;101908.50;5048783;28;20396;-63
2023/12/19 06:57:46;;;;;;;30.52;22.77;;;;;;;5.18;100.00;101907.59;5048173;28;20413;-63
2023/12/19 07:00:12;;;;;;;29.98;21.52;;;;;;;5.22;100.00;101896.75;5049728;28;20031;-63
2023/12/19 07:02:37;;;;;;;33.10;22.27;;;;;;;5.25;100.00;101896.97;5048866;28;20373;-63
2023/12/19 07:05:03;;;;;;;30.35;21.45;;;;;;;5.26;100.00;101896.22;5060879;28;20020;-63
2023/12/19 07:07:29;;;;;;;26.98;22.17;;;;;;;5.27;100.00;101890.28;5063126;28;20028;-63
2023/12/19 07:09:54;;;;;;;30.42;22.17;;;;;;;5.32;100.00;101892.28;5037990;28;20370;-62
2023/12/19 07:12:19;;;;;;;27.55;20.95;;;;;;;5.30;100.00;101894.75;5034491;28;20017;-63
2023/12/19 07:14:44;;;;;;;27.42;20.60;;;;;;;5.33;100.00;101879.53;5037405;28;20493;-63
2023/12/19 07:17:10;;;;;;;28.17;20.95;;;;;;;5.34;100.00;101880.44;5054730;28;20049;-63
2023/12/19 07:19:36;;;;;;;29.55;20.73;;;;;;;5.34;100.00;101885.56;5029726;28;20025;-63
2023/12/19 07:22:01;;;;;;;26.63;20.05;;;;;;;5.40;100.00;101886.00;5049987;28;20073;-63
2023/12/19 07:24:27;;;;;;;29.55;20.48;;;;;;;5.39;100.00;101884.22;5046902;28;20079;-63
2023/12/19 07:26:55;;;;;;;27.35;20.13;;;;;;;5.42;100.00;101876.72;5031093;28;20085;-63
2023/12/19 07:29:20;;;;;;;27.67;19.77;;;;;;;5.44;100.00;101872.56;5036350;28;20029;-62
2023/12/19 07:31:46;;;;;;;26.05;19.17;;;;;;;5.44;100.00;101876.81;5035440;28;20049;-63
2023/12/19 07:34:11;;;;;;;23.98;18.67;;;;;;;5.46;100.00;101860.72;5045249;28;20039;-63
2023/12/19 07:36:36;;;;;;;25.67;18.58;;;;;;;5.44;100.00;101870.00;5046380;28;20056;-63
2023/12/19 07:39:03;;;;;;;24.83;17.73;;;;;;;5.44;100.00;101872.56;5047312;28;20492;-63
2023/12/19 07:41:30;;;;;;;24.00;17.77;;;;;;;5.50;100.00;101892.69;5054258;28;20028;-63
2023/12/19 07:43:55;;;;;;;24.00;18.38;;;;;;;5.51;100.00;101889.31;5054361;28;20040;-63
2023/12/19 07:46:21;;;;;;;22.30;17.40;;;;;;;5.52;100.00;101891.13;5044525;28;20037;-64
2023/12/19 07:48:46;;;;;;;22.98;18.15;;;;;;;5.51;100.00;101885.06;5041055;28;20050;-63
2023/12/19 07:51:23;;;;;;;23.52;17.23;;;;;;;5.52;100.00;101893.69;5038356;28;20045;-63
2023/12/19 07:53:49;;;;;;;21.05;17.17;;;;;;;5.51;100.00;101885.06;5054929;28;20035;-63
2023/12/19 07:56:14;;;;;;;23.60;16.73;;;;;;;5.54;100.00;101879.22;5046151;28;20063;-63
2023/12/19 07:58:40;;;;;;;20.45;16.35;;;;;;;5.55;100.00;101864.72;5046103;28;20156;-62
2023/12/19 08:01:05;;;;;;;20.73;16.00;;;;;;;5.57;100.00;101868.28;5045841;28;20020;-63
2023/12/19 08:03:31;;;;;;;21.88;16.17;;;;;;;5.58;100.00;101870.06;5057346;28;20473;-63
2023/12/19 08:05:57;;;;;;;19.17;15.20;;;;;;;5.58;100.00;101870.06;5050429;28;20778;-62
2023/12/19 08:08:23;;;;;;;22.45;16.90;;;;;;;5.56;100.00;101871.66;5051872;28;20137;-63
2023/12/19 08:10:49;;;;;;;21.58;15.50;;;;;;;5.61;100.00;101875.44;5046725;28;20124;-63
2023/12/19 08:13:17;;;;;;;20.17;15.70;;;;;;;5.63;100.00;101853.28;5045688;28;20423;-63
2023/12/19 08:15:42;;;;;;;22.23;15.60;;;;;;;5.63;100.00;101849.00;5046077;28;20119;-63
2023/12/19 08:18:08;;;;;;;20.92;15.52;;;;;;;5.60;100.00;101847.91;5047796;28;20445;-64
2023/12/19 08:20:33;;;;;;;22.40;16.58;;;;;;;5.57;100.00;101853.75;5046458;28;20094;-63
2023/12/19 08:22:59;;;;;;;23.55;16.98;;;;;;;5.57;100.00;101860.56;5047536;28;20039;-64
2023/12/19 08:25:24;;;;;;;23.67;17.10;;;;;;;5.56;100.00;101851.09;5044300;28;20341;-63
2023/12/19 08:27:50;;;;;;;23.58;16.52;;;;;;;5.57;100.00;101852.84;5039803;28;20040;-63
2023/12/19 08:30:15;;;;;;;23.73;17.20;;;;;;;5.52;100.00;101847.41;5054371;28;20031;-63
2023/12/19 08:32:41;;;;;;;23.23;16.25;;;;;;;5.50;100.00;101855.03;5039226;28;20036;-62
2023/12/19 08:35:06;;;;;;;23.23;16.63;;;;;;;5.49;100.00;101845.50;5048744;28;20027;-63
2023/12/19 08:37:32;;;;;;;25.25;17.42;;;;;;;5.54;100.00;101840.66;5059376;28;20032;-63
2023/12/19 08:39:59;;;;;;;24.17;17.48;;;;;;;5.51;100.00;101848.19;5056171;28;20115;-63
2023/12/19 08:42:25;;;;;;;23.45;17.20;;;;;;;5.52;100.00;101860.25;5047092;28;20520;-63
2023/12/19 08:44:51;;;;;;;24.92;18.10;;;;;;;5.50;100.00;101841.25;5054414;28;20223;-63
2023/12/19 08:47:17;;;;;;;26.27;18.20;;;;;;;5.52;100.00;101834.56;5041358;28;20021;-63
2023/12/19 08:49:43;;;;;;;23.65;16.33;;;;;;;5.47;100.00;101839.34;5043627;28;20028;-63
2023/12/19 08:52:09;;;;;;;23.55;18.45;;;;;;;5.46;100.00;101832.44;5046332;28;20518;-63
2023/12/19 08:54:35;;;;;;;25.23;18.27;;;;;;;5.53;100.00;101833.75;5055097;28;20033;-63
2023/12/19 08:57:00;;;;;;;23.20;17.85;;;;;;;5.45;100.00;101833.22;5046138;28;20473;-63
2023/12/19 08:59:26;;;;;;;25.10;18.48;;;;;;;5.45;100.00;101837.47;5045199;28;20035;-63
2023/12/19 09:01:51;;;;;;;23.52;18.83;;;;;;;5.46;100.00;101828.97;5047024;28;20546;-62
2023/12/19 09:04:17;;;;;;;27.10;18.55;;;;;;;5.52;100.00;101822.56;5042698;28;20056;-63
2023/12/19 09:06:42;;;;;;;22.98;17.63;;;;;;;5.53;100.00;101823.47;5040860;28;20033;-63
2023/12/19 09:09:11;;;;;;;21.83;17.10;;;;;;;5.49;100.00;101824.94;5045558;28;20045;-63
2023/12/19 09:11:37;;;;;;;26.88;18.20;;;;;;;5.43;100.00;101824.53;5035059;28;20108;-63
2023/12/19 09:14:02;;;;;;;22.92;16.48;;;;;;;5.46;100.00;101829.88;5025589;28;20104;-63
2023/12/19 09:16:28;;;;;;;24.10;17.02;;;;;;;5.45;100.00;101822.94;5039759;28;20021;-63
2023/12/19 09:18:54;;;;;;;22.88;16.40;;;;;;;5.49;100.00;101817.22;5028010;28;20540;-63
2023/12/19 09:21:19;;;;;;;24.25;17.10;;;;;;;5.45;100.00;101815.22;5045970;28;20021;-63
2023/12/19 09:23:44;;;;;;;20.02;16.02;;;;;;;5.44;100.00;101816.00;5047652;28;20067;-63
2023/12/19 09:26:10;;;;;;;22.92;16.90;;;;;;;5.44;100.00;101810.88;5047773;28;20035;-63
2023/12/19 09:28:35;;;;;;;24.35;15.85;;;;;;;5.42;100.00;101807.31;5051824;28;20103;-63
2023/12/19 09:31:00;;;;;;;24.13;15.88;;;;;;;5.43;100.00;101803.06;5045807;28;20025;-63
2023/12/19 09:33:26;;;;;;;20.77;15.90;;;;;;;5.40;100.00;101802.06;5047096;28;20051;-63
2023/12/19 09:35:51;;;;;;;23.77;16.13;;;;;;;5.41;100.00;101800.38;5058614;28;20067;-63
2023/12/19 09:38:17;;;;;;;23.80;16.15;;;;;;;5.44;100.00;101795.44;5046754;28;20037;-63
2023/12/19 09:40:43;;;;;;;18.58;15.07;;;;;;;5.43;100.00;101809.09;5036320;28;20025;-63
2023/12/19 09:43:10;;;;;;;21.17;15.30;;;;;;;5.45;100.00;101797.22;5039815;28;20061;-63
2023/12/19 09:45:35;;;;;;;19.45;14.52;;;;;;;5.49;100.00;101803.47;5040620;28;20037;-63
2023/12/19 09:48:02;;;;;;;17.75;13.80;;;;;;;5.44;100.00;101794.53;5036006;28;20017;-63
2023/12/19 09:50:28;;;;;;;17.80;13.88;;;;;;;5.46;100.00;101788.72;5045011;28;20550;-63
2023/12/19 09:52:59;;;;;;;19.45;13.68;;;;;;;5.45;100.00;101786.06;5057030;28;20016;-63
2023/12/19 09:55:27;;;;;;;15.95;13.13;;;;;;;5.46;100.00;101788.72;5045874;28;20021;-63
2023/12/19 09:57:54;;;;;;;14.98;12.98;;;;;;;5.44;100.00;101774.88;5046511;28;20099;-63
2023/12/19 10:00:21;;;;;;;18.55;13.30;;;;;;;5.46;100.00;101770.75;5058845;28;20102;-63
2023/12/19 10:02:46;;;;;;;16.88;12.57;;;;;;;5.49;100.00;101770.94;5045813;28;20036;-63
2023/12/19 10:05:11;;;;;;;13.70;11.15;;;;;;;5.49;100.00;101765.78;5057772;28;20032;-63
2023/12/19 10:07:37;;;;;;;17.45;12.10;;;;;;;5.49;100.00;101763.22;5034974;28;20025;-63
2023/12/19 10:10:03;;;;;;;15.52;11.85;;;;;;;5.54;100.00;101763.53;5038453;28;20029;-63
2023/12/19 10:12:31;;;;;;;14.20;11.95;;;;;;;5.53;100.00;101749.78;5046415;28;20033;-63
2023/12/19 10:15:13;;;;;;;15.50;11.93;;;;;;;5.55;100.00;101756.72;5042223;28;20108;-63
2023/12/19 10:17:38;;;;;;;15.23;11.25;;;;;;;5.55;100.00;101756.72;5047720;28;20037;-63
2023/12/19 10:20:10;;;;;;;15.10;10.82;;;;;;;5.59;100.00;101754.47;5041007;28;20607;-63
2023/12/19 10:22:37;;;;;;;14.95;10.82;;;;;;;5.58;100.00;101747.53;5047226;28;20029;-64
2023/12/19 10:25:03;;;;;;;16.83;10.85;;;;;;;5.60;100.00;101750.19;5049672;28;20432;-63
2023/12/19 10:27:29;;;;;;;14.77;11.40;;;;;;;5.62;100.00;101746.94;5041430;28;20021;-63
2023/12/19 10:30:14;;;;;;;14.88;12.15;;;;;;;5.59;100.00;101738.13;5052742;28;20506;-63
2023/12/19 10:32:40;;;;;;;13.27;11.32;;;;;;;5.62;100.00;101738.34;5047982;28;20078;-63
2023/12/19 10:35:06;;;;;;;13.88;10.80;;;;;;;5.65;100.00;101734.28;5041915;28;20477;-63
2023/12/19 10:37:33;;;;;;;16.15;11.68;;;;;;;5.64;100.00;101726.47;5049211;28;20442;-63
2023/12/19 10:40:12;;;;;;;15.43;11.80;;;;;;;5.62;100.00;101712.63;5054297;28;20019;-63
2023/12/19 10:42:38;;;;;;;13.95;10.88;;;;;;;5.64;100.00;101711.03;5051378;28;20029;-63
2023/12/19 10:45:07;;;;;;;13.30;11.20;;;;;;;5.68;100.00;101713.03;5044890;28;20366;-63
2023/12/19 10:47:33;;;;;;;14.85;11.77;;;;;;;5.63;100.00;101711.84;5043370;28;20598;-63
2023/12/19 10:49:58;;;;;;;15.23;11.80;;;;;;;5.61;100.00;101706.56;5049671;28;20180;-63
2023/12/19 10:52:27;;;;;;;15.88;11.75;;;;;;;5.63;100.00;101699.84;5048194;28;20033;-63
2023/12/19 10:54:59;;;;;;;14.05;11.35;;;;;;;5.66;100.00;101696.59;5048182;28;20032;-63
2023/12/19 10:57:30;;;;;;;14.70;11.90;;;;;;;5.64;100.00;101691.38;5049000;28;20029;-63
2023/12/19 11:00:09;;;;;;;17.83;12.80;;;;;;;5.65;100.00;101670.00;5037979;28;20033;-63
2023/12/19 11:02:53;;;;;;;14.85;12.00;;;;;;;5.65;100.00;101663.94;5040697;28;20497;-63
2023/12/19 11:05:39;;;;;;;15.13;12.55;;;;;;;5.70;100.00;101651.41;5042112;28;20121;-63